createdAt,value
2019-06-01T00:02:19.217Z,73.79
2019-06-01T00:04:49.555Z,75.49
2019-06-01T00:07:19.601Z,74.96
2019-06-01T00:09:49.677Z,75.51
2019-06-01T00:12:19.591Z,75.68
2019-06-01T00:14:50.017Z,75.11
2019-06-01T00:17:20.277Z,74.41
2019-06-01T00:19:50.387Z,74.93
2019-06-01T00:22:20.546Z,74.52
2019-06-01T00:24:50.662Z,74.52
2019-06-01T00:27:20.699Z,74.29
2019-06-01T00:29:50.381Z,74.60
2019-06-01T00:32:20.431Z,75.05
2019-06-01T00:34:50.210Z,75.37
2019-06-01T00:37:21.037Z,75.89
2019-06-01T00:39:52.004Z,76.02
2019-06-01T00:42:21.731Z,75.54
2019-06-01T00:44:52.512Z,75.78
2019-06-01T00:47:24.310Z,75.78
2019-06-01T00:49:54.665Z,75.35
2019-06-01T00:52:26.671Z,75.35
2019-06-01T00:54:56.547Z,76.51
2019-06-01T00:57:26.284Z,75.50
2019-06-01T00:59:56.059Z,75.50
2019-06-01T01:02:26.183Z,75.83
2019-06-01T01:05:10.496Z,76.52
2019-06-01T01:07:40.468Z,76.52
2019-06-01T01:10:10.385Z,76.11
2019-06-01T01:12:57.425Z,76.20
2019-06-01T01:15:27.423Z,76.20
2019-06-01T01:17:57.188Z,75.51
2019-06-01T01:20:27.051Z,75.94
2019-06-01T01:22:57.088Z,76.31
2019-06-01T01:25:27.178Z,76.31
2019-06-01T01:27:57.561Z,76.33
2019-06-01T01:30:27.725Z,76.81
2019-06-01T01:32:59.353Z,76.81
2019-06-01T01:35:29.246Z,76.39
2019-06-01T01:37:59.520Z,77.17
2019-06-01T01:40:29.985Z,77.58
2019-06-01T01:42:59.781Z,77.58
2019-06-01T01:45:31.127Z,76.83
2019-06-01T01:48:01.448Z,76.79
2019-06-01T01:50:31.856Z,76.79
2019-06-01T01:53:03.306Z,76.86
2019-06-01T01:55:33.272Z,76.86
2019-06-01T01:58:03.536Z,76.64
2019-06-01T02:00:40.678Z,76.21
2019-06-01T02:03:10.357Z,76.21
2019-06-01T02:05:40.186Z,76.23
2019-06-01T02:08:10.108Z,76.05
2019-06-01T02:10:39.957Z,75.85
2019-06-01T02:13:09.775Z,76.14
2019-06-01T02:15:40.696Z,76.50
2019-06-01T02:18:11.355Z,76.59
2019-06-01T02:20:42.704Z,76.59
2019-06-01T02:23:12.555Z,76.67
2019-06-01T02:25:42.568Z,76.67
2019-06-01T02:28:12.534Z,76.22
2019-06-01T02:30:42.501Z,77.16
2019-06-01T02:33:12.235Z,77.16
2019-06-01T02:35:41.982Z,76.54
2019-06-01T02:38:11.975Z,76.57
2019-06-01T02:40:41.579Z,76.31
2019-06-01T02:43:12.079Z,76.59
2019-06-01T02:45:42.306Z,76.63
2019-06-01T02:48:12.217Z,78.09
2019-06-01T02:50:42.595Z,78.09
2019-06-01T02:53:12.433Z,77.35
2019-06-01T02:55:42.803Z,77.58
2019-06-01T02:58:13.022Z,77.58
2019-06-01T03:01:14.047Z,77.27
2019-06-01T03:03:44.165Z,77.18
2019-06-01T03:06:14.377Z,77.18
2019-06-01T03:08:46.473Z,76.81
2019-06-01T03:11:16.627Z,77.36
2019-06-01T03:13:46.856Z,77.08
2019-06-01T03:16:16.702Z,76.72
2019-06-01T03:18:47.212Z,76.99
2019-06-01T03:21:19.009Z,76.87
2019-06-01T03:23:49.490Z,77.56
2019-06-01T03:26:19.336Z,77.56
2019-06-01T03:28:52.084Z,78.24
2019-06-01T03:31:22.430Z,78.68
2019-06-01T03:33:52.432Z,77.64
2019-06-01T03:36:22.926Z,78.07
2019-06-01T03:38:52.980Z,78.07
2019-06-01T03:41:23.039Z,78.07
2019-06-01T03:43:53.077Z,76.98
2019-06-01T03:46:23.382Z,77.10
2019-06-01T03:48:53.446Z,77.10
2019-06-01T03:51:23.787Z,76.90
2019-06-01T03:53:53.776Z,76.11
2019-06-01T03:56:23.824Z,76.22
2019-06-01T03:58:53.677Z,76.75
2019-06-01T04:01:23.756Z,76.80
2019-06-01T04:03:53.717Z,76.33
2019-06-01T04:06:24.363Z,75.94
2019-06-01T04:08:54.487Z,76.86
2019-06-01T04:11:24.672Z,77.09
2019-06-01T04:13:55.716Z,77.25
2019-06-01T04:16:25.874Z,77.25
2019-06-01T04:18:55.893Z,77.43
2019-06-01T04:21:26.156Z,76.00
2019-06-01T04:23:56.224Z,76.00
2019-06-01T04:26:26.105Z,76.63
2019-06-01T04:28:56.490Z,76.22
2019-06-01T04:31:26.482Z,76.22
2019-06-01T04:33:56.582Z,76.09
2019-06-01T04:36:26.700Z,76.09
2019-06-01T04:38:56.660Z,75.30
2019-06-01T04:41:26.635Z,75.00
2019-06-01T04:43:57.670Z,75.45
2019-06-01T04:46:27.872Z,74.59
2019-06-01T04:48:57.921Z,73.86
2019-06-01T04:51:28.054Z,73.86
2019-06-01T04:53:58.397Z,73.95
2019-06-01T04:56:28.285Z,74.17
2019-06-01T04:58:58.648Z,73.25
2019-06-01T05:01:28.435Z,73.25
2019-06-01T05:03:58.792Z,73.31
2019-06-01T05:06:28.805Z,73.02
2019-06-01T05:08:58.952Z,72.97
2019-06-01T05:11:29.027Z,72.95
2019-06-01T05:13:59.665Z,72.45
2019-06-01T05:16:29.888Z,72.45
2019-06-01T05:18:59.781Z,72.08
2019-06-01T05:21:29.819Z,72.63
2019-06-01T05:23:59.751Z,72.34
2019-06-01T05:26:30.278Z,71.82
2019-06-01T05:29:00.396Z,72.20
2019-06-01T05:31:30.221Z,71.73
2019-06-01T05:34:00.153Z,71.73
2019-06-01T05:36:30.182Z,71.60
2019-06-01T05:39:00.201Z,70.54
2019-06-01T05:41:30.535Z,70.54
2019-06-01T05:44:00.477Z,69.92
2019-06-01T05:46:30.608Z,71.21
2019-06-01T05:49:00.770Z,71.00
2019-06-01T05:51:30.885Z,71.46
2019-06-01T05:54:01.668Z,71.18
2019-06-01T05:56:31.598Z,71.18
2019-06-01T05:59:02.104Z,71.22
2019-06-01T06:01:33.136Z,70.96
2019-06-01T06:04:03.233Z,70.40
2019-06-01T06:06:33.276Z,70.40
2019-06-01T06:09:03.636Z,70.63
2019-06-01T06:11:33.630Z,70.25
2019-06-01T06:14:03.955Z,69.80
2019-06-01T06:16:34.022Z,69.61
2019-06-01T06:19:04.346Z,69.78
2019-06-01T06:21:34.301Z,69.01
2019-06-01T06:24:04.628Z,68.79
2019-06-01T06:26:37.146Z,68.34
2019-06-01T06:29:07.016Z,68.41
2019-06-01T06:31:37.451Z,68.41
2019-06-01T06:34:07.357Z,68.26
2019-06-01T06:36:37.334Z,68.76
2019-06-01T06:39:08.686Z,68.76
2019-06-01T06:41:39.151Z,67.71
2019-06-01T06:44:09.039Z,67.46
2019-06-01T06:46:39.132Z,67.46
2019-06-01T06:49:10.156Z,67.52
2019-06-01T06:51:42.427Z,65.94
2019-06-01T06:54:14.574Z,65.94
2019-06-01T06:56:45.032Z,65.18
2019-06-01T06:59:16.188Z,66.45
2019-06-01T07:01:47.148Z,66.45
2019-06-01T07:04:19.174Z,66.07
2019-06-01T07:06:49.774Z,66.82
2019-06-01T07:09:20.332Z,66.82
2019-06-01T07:11:50.365Z,65.09
2019-06-01T07:14:21.202Z,65.09
2019-06-01T07:16:51.008Z,65.26
2019-06-01T07:19:21.549Z,64.80
2019-06-01T07:21:53.008Z,64.80
2019-06-01T07:24:23.916Z,65.25
2019-06-01T07:26:53.884Z,64.70
2019-06-01T07:29:24.211Z,64.23
2019-06-01T07:31:54.496Z,63.75
2019-06-01T07:34:35.868Z,62.38
2019-06-01T07:36:56.255Z,61.98
2019-06-01T07:39:26.863Z,61.98
2019-06-01T07:41:57.333Z,60.48
2019-06-01T07:44:27.164Z,61.92
2019-06-01T07:46:57.155Z,61.92
2019-06-01T07:49:39.295Z,59.67
2019-06-01T07:52:13.199Z,59.13
2019-06-01T07:54:41.778Z,59.82
2019-06-01T07:57:11.751Z,59.82
2019-06-01T07:59:41.757Z,58.70
2019-06-01T08:02:30.814Z,58.70
2019-06-01T08:05:00.547Z,57.46
2019-06-01T08:07:31.295Z,58.54
2019-06-01T08:10:01.248Z,59.03
2019-06-01T08:12:31.752Z,59.03
2019-06-01T08:15:03.848Z,58.71
2019-06-01T08:17:33.780Z,58.71
2019-06-01T08:20:03.643Z,58.51
2019-06-01T08:22:33.442Z,58.51
2019-06-01T08:25:04.131Z,58.65
2019-06-01T08:27:34.164Z,58.65
2019-06-01T08:30:04.291Z,57.77
2019-06-01T08:32:35.177Z,58.22
2019-06-01T08:35:09.221Z,56.88
2019-06-01T08:37:37.733Z,57.27
2019-06-01T08:40:08.882Z,57.27
2019-06-01T08:42:38.947Z,56.77
2019-06-01T08:45:09.402Z,55.81
2019-06-01T08:47:39.401Z,55.81
2019-06-01T08:50:09.439Z,54.37
2019-06-01T08:52:39.429Z,55.71
2019-06-01T08:55:10.085Z,56.17
2019-06-01T08:57:39.913Z,56.17
2019-06-01T09:00:10.526Z,56.17
2019-06-01T09:02:41.893Z,52.51
2019-06-01T09:05:23.938Z,52.82
2019-06-01T09:07:43.747Z,52.86
2019-06-01T09:10:15.069Z,52.86
2019-06-01T09:12:45.433Z,51.93
2019-06-01T09:15:15.140Z,51.93
2019-06-01T09:17:48.226Z,53.35
2019-06-01T09:20:18.079Z,53.24
2019-06-01T09:22:48.254Z,53.65
2019-06-01T09:25:19.094Z,51.78
2019-06-01T09:27:50.710Z,52.53
2019-06-01T09:30:34.337Z,52.53
2019-06-01T09:33:04.221Z,53.12
2019-06-01T09:35:52.550Z,52.57
2019-06-01T09:38:06.576Z,52.57
2019-06-01T09:40:38.716Z,52.19
2019-06-01T09:43:09.082Z,50.27
2019-06-01T09:45:39.148Z,50.27
2019-06-01T09:48:08.871Z,50.96
2019-06-01T09:50:38.832Z,50.03
2019-06-01T09:53:08.550Z,49.77
2019-06-01T09:55:38.506Z,50.78
2019-06-01T09:58:09.980Z,50.10
2019-06-01T10:00:43.407Z,50.10
2019-06-01T10:03:12.146Z,50.25
2019-06-01T10:05:42.204Z,50.25
2019-06-01T10:08:12.214Z,50.25
2019-06-01T10:10:43.248Z,50.25
2019-06-01T10:13:13.523Z,50.03
2019-06-01T10:15:44.931Z,49.47
2019-06-01T10:18:15.492Z,49.50
2019-06-01T10:20:45.770Z,49.50
2019-06-01T10:23:15.885Z,49.62
2019-06-01T10:25:46.687Z,49.62
2019-06-01T10:28:17.755Z,49.15
2019-06-01T10:30:48.084Z,50.45
2019-06-01T10:33:18.450Z,49.40
2019-06-01T10:35:49.785Z,48.47
2019-06-01T10:38:21.989Z,48.47
2019-06-01T10:40:52.175Z,48.46
2019-06-01T10:43:25.157Z,48.46
2019-06-01T10:45:55.430Z,48.04
2019-06-01T10:48:26.014Z,48.85
2019-06-01T10:50:55.781Z,48.85
2019-06-01T10:53:26.152Z,48.80
2019-06-01T10:55:55.790Z,46.28
2019-06-01T10:58:25.614Z,46.28
2019-06-01T11:00:55.694Z,47.94
2019-06-01T11:03:28.279Z,46.69
2019-06-01T11:05:58.027Z,46.15
2019-06-01T11:08:28.172Z,46.15
2019-06-01T11:11:02.678Z,46.77
2019-06-01T11:13:33.121Z,45.30
2019-06-01T11:16:02.807Z,45.30
2019-06-01T11:18:33.196Z,46.58
2019-06-01T11:21:12.802Z,46.58
2019-06-01T11:23:46.540Z,45.07
2019-06-01T11:26:17.017Z,44.09
2019-06-01T11:28:47.683Z,44.30
2019-06-01T11:31:17.777Z,45.62
2019-06-01T11:33:47.500Z,43.34
2019-06-01T11:36:17.421Z,44.90
2019-06-01T11:38:47.304Z,45.43
2019-06-01T11:41:18.617Z,45.90
2019-06-01T11:43:48.640Z,46.30
2019-06-01T11:46:18.608Z,46.11
2019-06-01T11:48:48.699Z,46.11
2019-06-01T11:51:18.617Z,45.82
2019-06-01T11:53:49.754Z,44.88
2019-06-01T11:56:19.562Z,45.05
2019-06-01T11:58:52.485Z,45.05
2019-06-01T12:01:23.092Z,45.91
2019-06-01T12:03:53.539Z,45.82
2019-06-01T12:06:23.386Z,44.92
2019-06-01T12:08:54.040Z,44.92
2019-06-01T12:11:24.507Z,45.41
2019-06-01T12:13:54.461Z,44.34
2019-06-01T12:16:25.858Z,43.40
2019-06-01T12:18:55.752Z,44.62
2019-06-01T12:21:27.795Z,44.62
2019-06-01T12:23:57.826Z,42.09
2019-06-01T12:26:27.848Z,42.88
2019-06-01T12:28:58.404Z,44.92
2019-06-01T12:31:28.950Z,44.92
2019-06-01T12:33:59.056Z,43.94
2019-06-01T12:36:28.843Z,43.94
2019-06-01T12:38:58.635Z,44.81
2019-06-01T12:41:28.624Z,42.84
2019-06-01T12:44:15.202Z,44.59
2019-06-01T12:46:48.908Z,43.98
2019-06-01T12:49:18.841Z,41.91
2019-06-01T12:51:49.063Z,41.88
2019-06-01T12:54:19.634Z,41.81
2019-06-01T12:56:50.259Z,42.61
2019-06-01T12:59:21.137Z,42.81
2019-06-01T13:01:51.361Z,37.84
2019-06-01T13:04:22.681Z,37.99
2019-06-01T13:06:54.141Z,40.49
2019-06-01T13:09:24.712Z,40.49
2019-06-01T13:11:57.119Z,39.31
2019-06-01T13:14:27.144Z,38.95
2019-06-01T13:17:06.809Z,38.95
2019-06-01T13:19:28.668Z,40.99
2019-06-01T13:21:58.823Z,41.24
2019-06-01T13:24:30.315Z,39.42
2019-06-01T13:27:01.457Z,39.42
2019-06-01T13:29:31.473Z,40.01
2019-06-01T13:32:01.491Z,38.70
2019-06-01T13:34:34.050Z,40.67
2019-06-01T13:37:03.317Z,40.85
2019-06-01T13:39:33.334Z,37.58
2019-06-01T13:42:03.373Z,37.58
2019-06-01T13:44:33.220Z,38.55
2019-06-01T13:47:08.069Z,38.55
2019-06-01T13:49:38.364Z,38.30
2019-06-01T13:52:08.506Z,36.57
2019-06-01T13:54:40.200Z,36.82
2019-06-01T13:57:10.506Z,36.82
2019-06-01T13:59:40.466Z,39.65
2019-06-01T14:02:10.576Z,39.65
2019-06-01T14:04:40.902Z,39.01
2019-06-01T14:07:11.033Z,36.74
2019-06-01T14:09:41.056Z,36.80
2019-06-01T14:12:11.525Z,37.83
2019-06-01T14:14:41.396Z,39.86
2019-06-01T14:17:11.435Z,39.86
2019-06-01T14:19:41.560Z,37.64
2019-06-01T14:22:12.116Z,36.72
2019-06-01T14:24:44.104Z,37.40
2019-06-01T14:27:13.598Z,37.40
2019-06-01T14:29:44.204Z,39.63
2019-06-01T14:32:14.172Z,38.03
2019-06-01T14:34:44.277Z,38.03
2019-06-01T14:37:14.136Z,38.79
2019-06-01T14:39:44.345Z,38.79
2019-06-01T14:42:14.610Z,37.22
2019-06-01T14:44:47.697Z,37.91
2019-06-01T14:47:18.748Z,37.91
2019-06-01T14:49:49.466Z,38.33
2019-06-01T14:52:19.838Z,37.82
2019-06-01T14:54:49.778Z,35.17
2019-06-01T14:57:20.360Z,35.17
2019-06-01T14:59:51.901Z,36.37
2019-06-01T15:02:22.526Z,37.44
2019-06-01T15:04:54.320Z,36.43
2019-06-01T15:07:26.694Z,36.53
2019-06-01T15:09:56.436Z,35.66
2019-06-01T15:12:26.323Z,37.34
2019-06-01T15:14:57.506Z,37.34
2019-06-01T15:17:27.401Z,36.90
2019-06-01T15:19:58.302Z,36.52
2019-06-01T15:22:28.771Z,35.81
2019-06-01T15:24:59.308Z,36.84
2019-06-01T15:27:29.155Z,36.84
2019-06-01T15:29:59.446Z,34.12
2019-06-01T15:32:29.403Z,35.58
2019-06-01T15:35:00.086Z,34.60
2019-06-01T15:37:30.734Z,35.02
2019-06-01T15:40:00.711Z,33.63
2019-06-01T15:42:30.630Z,33.63
2019-06-01T15:45:01.501Z,33.93
2019-06-01T15:47:34.767Z,33.98
2019-06-01T15:50:07.671Z,36.06
2019-06-01T15:52:37.588Z,36.06
2019-06-01T15:55:07.534Z,35.83
2019-06-01T15:57:37.336Z,34.27
2019-06-01T16:00:07.738Z,35.96
2019-06-01T16:02:37.445Z,35.01
2019-06-01T16:05:09.076Z,35.01
2019-06-01T16:07:38.866Z,36.31
2019-06-01T16:10:08.979Z,36.72
2019-06-01T16:12:38.946Z,35.58
2019-06-01T16:15:10.548Z,35.15
2019-06-01T16:17:55.819Z,35.14
2019-06-01T16:20:26.047Z,36.78
2019-06-01T16:22:56.209Z,36.78
2019-06-01T16:25:26.432Z,36.59
2019-06-01T16:27:56.699Z,37.06
2019-06-01T16:30:26.779Z,38.60
2019-06-01T16:32:56.767Z,38.58
2019-06-01T16:35:27.667Z,38.54
2019-06-01T16:37:58.895Z,38.89
2019-06-01T16:40:30.206Z,38.32
2019-06-01T16:43:01.462Z,39.20
2019-06-01T16:45:32.893Z,39.28
2019-06-01T16:48:03.732Z,39.03
2019-06-01T16:50:34.229Z,38.90
2019-06-01T16:53:04.476Z,38.18
2019-06-01T16:55:34.298Z,39.90
2019-06-01T16:58:06.556Z,39.92
2019-06-01T17:00:37.882Z,41.04
2019-06-01T17:03:13.188Z,39.16
2019-06-01T17:06:09.914Z,39.36
2019-06-01T17:08:42.003Z,39.68
2019-06-01T17:11:12.114Z,39.68
2019-06-01T17:13:42.450Z,39.56
2019-06-01T17:16:13.966Z,39.71
2019-06-01T17:18:44.236Z,39.92
2019-06-01T17:21:14.085Z,39.92
2019-06-01T17:23:45.152Z,39.47
2019-06-01T17:26:15.038Z,39.88
2019-06-01T17:28:45.220Z,39.88
2019-06-01T17:31:15.888Z,40.23
2019-06-01T17:33:45.771Z,40.23
2019-06-01T17:36:16.554Z,39.61
2019-06-01T17:38:46.318Z,39.61
2019-06-01T17:41:16.472Z,39.00
2019-06-01T17:43:47.447Z,39.19
2019-06-01T17:46:17.680Z,39.08
2019-06-01T17:48:47.479Z,39.58
2019-06-01T17:51:17.725Z,39.67
2019-06-01T17:53:54.498Z,39.67
2019-06-01T17:56:24.727Z,40.11
2019-06-01T17:58:55.201Z,40.37
2019-06-01T18:01:25.060Z,40.37
2019-06-01T18:03:56.511Z,40.19
2019-06-01T18:06:26.727Z,39.94
2019-06-01T18:08:57.065Z,40.91
2019-06-01T18:11:30.006Z,40.91
2019-06-01T18:14:02.237Z,40.38
2019-06-01T18:16:35.706Z,40.96
2019-06-01T18:19:06.449Z,40.96
2019-06-01T18:21:36.674Z,40.63
2019-06-01T18:24:08.430Z,40.58
2019-06-01T18:26:38.505Z,40.99
2019-06-01T18:29:08.600Z,40.99
2019-06-01T18:31:38.882Z,41.99
2019-06-01T18:34:09.691Z,44.08
2019-06-01T18:37:24.207Z,44.08
2019-06-01T18:39:55.706Z,43.81
2019-06-01T18:42:26.644Z,43.81
2019-06-01T18:44:56.411Z,42.30
2019-06-01T18:47:32.459Z,42.71
2019-06-01T18:50:02.596Z,43.38
2019-06-01T18:52:39.814Z,43.43
2019-06-01T18:55:10.597Z,43.43
2019-06-01T18:57:42.050Z,44.15
2019-06-01T19:00:13.850Z,46.28
2019-06-01T19:02:43.625Z,46.28
2019-06-01T19:05:13.392Z,45.66
2019-06-01T19:07:44.114Z,45.61
2019-06-01T19:10:18.351Z,45.88
2019-06-01T19:12:48.448Z,46.01
2019-06-01T19:15:26.739Z,47.35
2019-06-01T19:17:50.937Z,47.35
2019-06-01T19:20:20.776Z,47.93
2019-06-01T19:22:52.113Z,47.93
2019-06-01T19:25:22.194Z,49.40
2019-06-01T19:27:52.726Z,49.40
2019-06-01T19:30:42.369Z,49.69
2019-06-01T19:33:19.244Z,49.41
2019-06-01T19:35:47.777Z,50.35
2019-06-01T19:38:18.297Z,51.28
2019-06-01T19:40:48.375Z,52.46
2019-06-01T19:43:18.406Z,52.46
2019-06-01T19:45:48.469Z,52.08
2019-06-01T19:48:19.265Z,52.00
2019-06-01T19:50:49.603Z,53.41
2019-06-01T19:53:19.541Z,53.13
2019-06-01T19:55:49.476Z,53.13
2019-06-01T19:58:19.836Z,52.83
2019-06-01T20:00:50.114Z,53.30
2019-06-01T20:03:22.129Z,54.33
2019-06-01T20:05:51.599Z,54.33
2019-06-01T20:08:22.651Z,55.09
2019-06-01T20:10:52.938Z,55.09
2019-06-01T20:13:24.574Z,54.59
2019-06-01T20:15:55.856Z,54.58
2019-06-01T20:18:26.942Z,54.27
2019-06-01T20:20:58.695Z,54.74
2019-06-01T20:23:29.126Z,54.74
2019-06-01T20:26:01.650Z,54.53
2019-06-01T20:28:34.547Z,55.15
2019-06-01T20:31:07.247Z,55.15
2019-06-01T20:33:37.123Z,55.44
2019-06-01T20:36:11.968Z,55.92
2019-06-01T20:38:41.843Z,55.92
2019-06-01T20:41:12.783Z,56.17
2019-06-01T20:43:43.824Z,56.51
2019-06-01T20:46:14.568Z,56.41
2019-06-01T20:48:44.516Z,56.43
2019-06-01T20:51:14.716Z,56.70
2019-06-01T20:53:44.826Z,56.38
2019-06-01T20:56:15.336Z,56.71
2019-06-01T20:58:45.201Z,57.63
2019-06-01T21:01:17.563Z,57.64
2019-06-01T21:03:47.587Z,57.60
2019-06-01T21:06:22.485Z,58.04
2019-06-01T21:08:52.846Z,58.04
2019-06-01T21:11:24.415Z,57.68
2019-06-01T21:13:54.567Z,57.60
2019-06-01T21:16:24.878Z,57.92
2019-06-01T21:18:55.025Z,57.18
2019-06-01T21:21:25.375Z,56.74
2019-06-01T21:23:55.385Z,56.74
2019-06-01T21:26:25.438Z,57.66
2019-06-01T21:28:55.234Z,58.07
2019-06-01T21:31:28.150Z,58.07
2019-06-01T21:33:58.117Z,58.29
2019-06-01T21:36:28.103Z,58.51
2019-06-01T21:38:58.401Z,58.22
2019-06-01T21:41:28.767Z,58.22
2019-06-01T21:43:59.228Z,58.44
2019-06-01T21:46:29.333Z,58.04
2019-06-01T21:48:59.558Z,58.10
2019-06-01T21:51:29.471Z,58.10
2019-06-01T21:53:59.933Z,57.77
2019-06-01T21:56:30.890Z,57.77
2019-06-01T21:59:06.471Z,58.05
2019-06-01T22:01:36.398Z,57.80
2019-06-01T22:04:06.778Z,57.92
2019-06-01T22:06:36.938Z,57.92
2019-06-01T22:09:08.409Z,58.09
2019-06-01T22:11:38.437Z,58.11
2019-06-01T22:14:08.274Z,58.67
2019-06-01T22:16:38.338Z,58.57
2019-06-01T22:19:09.172Z,58.46
2019-06-01T22:21:40.261Z,58.65
2019-06-01T22:24:10.222Z,58.81
2019-06-01T22:26:40.083Z,58.76
2019-06-01T22:29:10.269Z,58.94
2019-06-01T22:31:41.360Z,58.94
2019-06-01T22:34:12.350Z,59.03
2019-06-01T22:36:42.483Z,59.37
2019-06-01T22:39:14.666Z,59.37
2019-06-01T22:41:44.510Z,60.44
2019-06-01T22:44:17.154Z,60.15
2019-06-01T22:46:47.601Z,60.05
2019-06-01T22:49:17.906Z,60.10
2019-06-01T22:51:49.715Z,60.05
2019-06-01T22:54:23.546Z,60.19
2019-06-01T22:56:55.200Z,60.13
2019-06-01T22:59:26.660Z,60.33
2019-06-01T23:02:00.439Z,60.04
2019-06-01T23:04:33.599Z,60.31
2019-06-01T23:07:04.376Z,60.31
2019-06-01T23:09:35.567Z,60.29
2019-06-01T23:12:05.673Z,60.45
2019-06-01T23:14:35.625Z,60.71
2019-06-01T23:17:05.710Z,60.48
2019-06-01T23:19:35.646Z,60.97
2019-06-01T23:22:06.466Z,60.97
2019-06-01T23:24:36.538Z,61.38
2019-06-01T23:27:07.028Z,61.38
2019-06-01T23:29:37.757Z,61.73
2019-06-01T23:32:11.011Z,61.14
2019-06-01T23:34:44.359Z,61.69
2019-06-01T23:37:14.493Z,61.69
2019-06-01T23:39:44.870Z,61.77
2019-06-01T23:42:14.858Z,61.77
2019-06-01T23:44:44.980Z,62.11
2019-06-01T23:47:15.443Z,62.09
2019-06-01T23:49:45.655Z,62.09
2019-06-01T23:52:15.973Z,62.22
2019-06-01T23:54:46.223Z,62.58
2019-06-01T23:57:18.406Z,62.41
2019-06-01T23:59:48.480Z,62.41
